Morro Bay, CA

2:53 PM PDT on July 05, 2015 (GMT -0700)
The North Cloisters | | Change Station
CLOSE
Current Station
Personal Weather Station
Location: Morro Bay, CA
Elevation: 10 ft
Nearby Weather Stations

Elev 10 ft 35.39 °N, 120.86 °W | Updated 23 minutes ago

Clear
Clear
63.9 °F
Feels Like 63.9 °F
N
5.0
Wind Variable Wind from West
Gusts 5.0 mph

Today
High -- | Low -- °F
--% Chance of Precip.
Yesterday
High -- | Low -- °F
Precip. -- in
5:53 AM 8:21 PM
Waning Gibbous, 82% visible
Pressure 29.97 in
Visibility 10.0 miles
Clouds Clear
Dew Point 60 °F
Humidity 86%
Rainfall 0.00 in
Snow Depth Not available.
UV 12 out of 12
Pollen 5.60 out of 12
Air Quality Not available.
Flu Activity Not available.
METAR KSBP 052056Z 31008KT 10SM CLR 23/13 A2998 RMK AO2 SLP148 T02330128 58008

More Conditions Fewer Conditions

Pressure 29.97 in
Visibility 10.0 miles
Clouds Clear
Dew Point 60 °F
Humidity 86%
Rainfall 0.00 in
Snow Depth Not available.
UV 12 out of 12
Pollen 5.60 out of 12
Air Quality Not available.
Flu Activity Not available.
METAR KSBP 052056Z 31008KT 10SM CLR 23/13 A2998 RMK AO2 SLP148 T02330128 58008

More Conditions Fewer Conditions

10-Day Weather Forecast

×

Almanac

Astronomy

Jul. 05, 2015 Rise Set
Actual Time
Civil Twilight
Nautical Twilight
Astronomical Twilight
Moon
Length of Visible Light
Length of Day
Tomorrow will be .
, % of the Moon is Illuminated

Today's Extremes

State Highs State Lows

Community

WunderPhotos

Upload Photos

1,835,400 photos uploaded!

WunderBlogs® & News

Nearby

Air Quality

  Air Quality AQ Index Pollutant
Not available.

Snow Depth

Station Depth Elevation

Earthquake Activity

City Distance Mag. Time & Date
Minimum magnitude displayed is 2.5.

Coastal Water Temperatures

Place Temperature

Stations

Nearby Weather Stations

Station Location Temp. Windchill Dew Point Humidity Wind Precip. Elev Updated Type